Time;durP1;ratioP1;P1;durP2;ratioP2;P2;SDS_P1;SDS_P2;PMS_P1;PMS_P2;Temp;Humidity;BMP_temperature;BMP_pressure;BME280_temperature;BME280_humidity;BME280_pressure;Samples;Min_cycle;Max_cycle;Signal;HPM_P1;HPM_P2
2022/06/05 00:01:11;;;;;;;;;;;19.30;90.40;;;;;;5090342;28;19909;-73
2022/06/05 00:03:40;;;;;;;;;;;19.30;90.50;;;;;;5089927;28;20330;-74
2022/06/05 00:06:19;;;;;;;;;;;19.30;90.50;;;;;;5091884;28;19915;-74
2022/06/05 00:08:50;;;;;;;;;;;19.30;90.90;;;;;;5089872;28;19963;-74
2022/06/05 00:11:16;;;;;;;;;;;19.30;90.70;;;;;;5090330;28;20352;-73
2022/06/05 00:13:42;;;;;;;;;;;19.30;90.80;;;;;;5091150;28;19916;-73
2022/06/05 00:16:08;;;;;;;;;;;19.20;91.00;;;;;;5091283;28;19912;-73
2022/06/05 00:18:35;;;;;;;;;;;19.20;91.00;;;;;;5091141;28;19968;-74
2022/06/05 00:21:00;;;;;;;;;;;19.30;91.10;;;;;;5090987;28;20333;-73
2022/06/05 00:23:26;;;;;;;;;;;19.20;91.10;;;;;;5089696;28;19920;-73
2022/06/05 00:26:02;;;;;;;;;;;19.20;91.20;;;;;;5091288;28;19912;-73
2022/06/05 00:28:30;;;;;;;;;;;19.10;91.40;;;;;;5091000;28;20010;-74
2022/06/05 00:31:00;;;;;;;;;;;19.20;90.80;;;;;;5091347;28;19959;-73
2022/06/05 00:33:28;;;;;;;;;;;19.20;90.90;;;;;;5089910;28;19913;-73
2022/06/05 00:36:01;;;;;;;;;;;19.20;91.00;;;;;;5091689;28;19912;-73
2022/06/05 00:38:36;;;;;;;;;;;19.20;91.00;;;;;;5091191;28;19913;-73
2022/06/05 00:41:20;;;;;;;;;;;19.20;91.10;;;;;;5091776;28;19916;-73
2022/06/05 00:43:47;;;;;;;;;;;19.10;91.10;;;;;;5091230;28;20310;-73
2022/06/05 00:46:15;;;;;;;;;;;19.10;91.20;;;;;;5091388;28;19916;-73
2022/06/05 00:48:41;;;;;;;;;;;19.10;91.40;;;;;;5089345;28;19920;-73
2022/06/05 00:51:06;;;;;;;;;;;19.10;91.50;;;;;;5090783;28;20253;-73
2022/06/05 00:53:32;;;;;;;;;;;19.00;91.70;;;;;;5092867;28;19923;-73
2022/06/05 00:55:58;;;;;;;;;;;18.90;91.60;;;;;;5094812;28;20244;-73
2022/06/05 00:58:23;;;;;;;;;;;18.90;91.70;;;;;;5093152;28;19912;-73
2022/06/05 01:00:51;;;;;;;;;;;18.90;91.80;;;;;;5094584;28;20380;-73
2022/06/05 01:03:18;;;;;;;;;;;18.90;91.70;;;;;;5094309;28;20015;-73
2022/06/05 01:05:44;;;;;;;;;;;18.90;91.90;;;;;;5094587;28;20271;-73
2022/06/05 01:08:10;;;;;;;;;;;18.90;92.00;;;;;;5094285;28;19916;-74
2022/06/05 01:10:39;;;;;;;;;;;18.90;91.90;;;;;;5094679;28;19913;-74
2022/06/05 01:13:24;;;;;;;;;;;18.90;91.80;;;;;;5094494;28;19966;-74
2022/06/05 01:15:57;;;;;;;;;;;18.90;92.00;;;;;;5094071;28;19937;-74
2022/06/05 01:18:40;;;;;;;;;;;18.90;92.10;;;;;;5093907;28;20420;-74
2022/06/05 01:21:08;;;;;;;;;;;18.80;92.30;;;;;;5094437;28;19920;-74
2022/06/05 01:23:52;;;;;;;;;;;18.80;92.30;;;;;;5093698;28;19920;-74
2022/06/05 01:26:23;;;;;;;;;;;18.90;92.50;;;;;;5094260;28;19916;-73
2022/06/05 01:28:52;;;;;;;;;;;18.90;92.50;;;;;;5094123;28;19916;-73
2022/06/05 01:31:22;;;;;;;;;;;18.80;92.60;;;;;;5092906;28;19912;-74
2022/06/05 01:34:10;;;;;;;;;;;18.80;92.70;;;;;;5093721;28;19917;-74
2022/06/05 01:36:45;;;;;;;;;;;18.70;92.80;;;;;;5093544;28;19917;-74
2022/06/05 01:39:13;;;;;;;;;;;18.90;93.00;;;;;;5093596;28;19916;-73
2022/06/05 01:41:44;;;;;;;;;;;18.70;93.10;;;;;;5093680;28;19951;-73
2022/06/05 01:44:11;;;;;;;;;;;18.70;93.10;;;;;;5092167;28;20359;-74
2022/06/05 01:46:38;;;;;;;;;;;18.70;93.00;;;;;;5092001;28;20015;-73
2022/06/05 01:49:22;;;;;;;;;;;18.50;93.00;;;;;;5093271;28;19908;-74
2022/06/05 01:51:59;;;;;;;;;;;18.70;93.00;;;;;;5093343;28;19916;-74
2022/06/05 01:54:36;;;;;;;;;;;18.70;93.00;;;;;;5093032;28;19919;-74
2022/06/05 01:57:04;;;;;;;;;;;18.70;93.00;;;;;;5093338;28;19955;-74
2022/06/05 01:59:37;;;;;;;;;;;18.60;93.30;;;;;;5092977;28;19931;-74
2022/06/05 02:02:04;;;;;;;;;;;18.60;93.30;;;;;;5093364;28;19979;-73
2022/06/05 02:04:35;;;;;;;;;;;18.60;93.10;;;;;;5092755;28;19961;-74
2022/06/05 02:07:06;;;;;;;;;;;18.50;93.20;;;;;;5091614;28;19959;-74
2022/06/05 02:09:34;;;;;;;;;;;18.60;93.30;;;;;;5092793;28;19959;-74
2022/06/05 02:12:01;;;;;;;;;;;18.50;93.20;;;;;;5092937;28;19916;-74
2022/06/05 02:14:26;;;;;;;;;;;18.50;93.40;;;;;;5092963;28;19909;-73
2022/06/05 02:16:52;;;;;;;;;;;18.60;93.30;;;;;;5092849;28;19990;-73
2022/06/05 02:19:18;;;;;;;;;;;18.60;93.20;;;;;;5092749;28;19912;-73
2022/06/05 02:21:44;;;;;;;;;;;18.60;93.10;;;;;;5092627;28;19934;-74
2022/06/05 02:24:11;;;;;;;;;;;18.60;93.20;;;;;;5092443;28;20411;-73
2022/06/05 02:26:37;;;;;;;;;;;18.60;93.30;;;;;;5092553;28;19920;-73
2022/06/05 02:29:04;;;;;;;;;;;18.60;93.40;;;;;;5092520;28;19908;-73
2022/06/05 02:31:39;;;;;;;;;;;18.60;93.90;;;;;;5092395;28;19998;-73
2022/06/05 02:34:19;;;;;;;;;;;18.50;93.60;;;;;;5092416;28;19920;-72
2022/06/05 02:36:47;;;;;;;;;;;18.50;93.80;;;;;;5092555;28;20015;-73
2022/06/05 02:39:20;;;;;;;;;;;18.50;93.90;;;;;;5092371;28;19908;-75
2022/06/05 02:41:57;;;;;;;;;;;18.50;93.90;;;;;;5091267;28;19959;-73
2022/06/05 02:44:37;;;;;;;;;;;18.40;94.20;;;;;;5091203;28;20283;-74
2022/06/05 02:47:11;;;;;;;;;;;18.50;94.00;;;;;;5092513;28;19980;-74
2022/06/05 02:49:43;;;;;;;;;;;18.40;94.60;;;;;;5090777;28;19983;-74
2022/06/05 02:52:09;;;;;;;;;;;18.40;94.50;;;;;;5092149;28;19916;-74
2022/06/05 02:54:38;;;;;;;;;;;18.50;94.40;;;;;;5092097;28;20002;-74
2022/06/05 02:57:04;;;;;;;;;;;18.50;94.30;;;;;;5092119;28;20356;-74
2022/06/05 02:59:30;;;;;;;;;;;18.50;94.40;;;;;;5091780;28;19962;-73
2022/06/05 03:04:39;;;;;;;;;;;18.50;94.40;;;;;;5091034;28;19920;-74
2022/06/05 03:07:05;;;;;;;;;;;18.40;94.70;;;;;;5091982;28;19920;-74
2022/06/05 03:09:30;;;;;;;;;;;18.50;94.50;;;;;;5091856;28;19912;-74
2022/06/05 03:11:56;;;;;;;;;;;18.50;94.60;;;;;;5092305;28;19923;-74
2022/06/05 03:14:21;;;;;;;;;;;18.50;94.60;;;;;;5090571;28;19915;-73
2022/06/05 03:16:47;;;;;;;;;;;18.40;94.60;;;;;;5091059;28;20010;-74
2022/06/05 03:19:12;;;;;;;;;;;18.40;94.70;;;;;;5091971;28;20374;-73
2022/06/05 03:21:38;;;;;;;;;;;18.40;94.50;;;;;;5091884;28;19927;-74
2022/06/05 03:24:04;;;;;;;;;;;18.40;94.70;;;;;;5091762;28;20021;-73
2022/06/05 03:26:30;;;;;;;;;;;18.50;94.60;;;;;;5091348;28;19999;-74
2022/06/05 03:28:56;;;;;;;;;;;18.50;94.60;;;;;;5091527;28;20336;-73
2022/06/05 03:31:21;;;;;;;;;;;18.50;94.50;;;;;;5090503;28;19955;-74
2022/06/05 03:33:47;;;;;;;;;;;18.50;94.60;;;;;;5091645;28;19923;-74
2022/06/05 03:36:13;;;;;;;;;;;18.60;94.50;;;;;;5091987;28;19938;-74
2022/06/05 03:38:39;;;;;;;;;;;18.50;94.40;;;;;;5092042;28;20552;-74
2022/06/05 03:41:05;;;;;;;;;;;18.60;94.40;;;;;;5091973;28;19958;-74
2022/06/05 03:43:31;;;;;;;;;;;18.60;94.30;;;;;;5090220;28;19959;-74
2022/06/05 03:46:01;;;;;;;;;;;18.60;94.20;;;;;;5091798;28;20263;-74
2022/06/05 03:48:26;;;;;;;;;;;18.60;94.30;;;;;;5091337;28;19974;-74
2022/06/05 03:50:52;;;;;;;;;;;18.60;94.30;;;;;;5091672;28;20368;-74
2022/06/05 03:53:17;;;;;;;;;;;18.60;94.30;;;;;;5091404;28;19913;-74
2022/06/05 03:55:43;;;;;;;;;;;18.70;93.90;;;;;;5089907;28;19912;-74
2022/06/05 03:58:08;;;;;;;;;;;18.60;94.20;;;;;;5091343;28;19934;-74
2022/06/05 04:00:34;;;;;;;;;;;18.60;94.20;;;;;;5091418;28;19919;-74
2022/06/05 04:03:00;;;;;;;;;;;18.60;93.80;;;;;;5089925;28;20411;-74
2022/06/05 04:05:26;;;;;;;;;;;18.60;94.10;;;;;;5091435;28;19956;-73
2022/06/05 04:07:52;;;;;;;;;;;18.60;94.00;;;;;;5091036;28;19966;-74
2022/06/05 04:10:18;;;;;;;;;;;18.50;94.00;;;;;;5091464;28;19912;-74
2022/06/05 04:12:44;;;;;;;;;;;18.50;94.00;;;;;;5091653;28;20389;-73
2022/06/05 04:15:11;;;;;;;;;;;18.60;94.00;;;;;;5091358;28;19994;-74
2022/06/05 04:17:36;;;;;;;;;;;18.60;94.10;;;;;;5089599;28;19912;-73
2022/06/05 04:20:03;;;;;;;;;;;18.50;94.30;;;;;;5091314;28;19922;-73
2022/06/05 04:22:29;;;;;;;;;;;18.60;94.40;;;;;;5091137;28;19934;-73
2022/06/05 04:24:54;;;;;;;;;;;18.60;94.40;;;;;;5091257;28;19924;-73
2022/06/05 04:27:20;;;;;;;;;;;18.50;94.60;;;;;;5092807;28;19916;-74
2022/06/05 04:29:45;;;;;;;;;;;18.60;94.60;;;;;;5093323;28;19912;-73
2022/06/05 04:32:11;;;;;;;;;;;18.60;94.60;;;;;;5093451;28;19916;-74
2022/06/05 04:34:37;;;;;;;;;;;18.60;94.50;;;;;;5093303;28;19912;-73
2022/06/05 04:37:02;;;;;;;;;;;18.60;94.70;;;;;;5094679;28;19918;-73
2022/06/05 04:39:28;;;;;;;;;;;18.60;94.80;;;;;;5094804;28;19927;-74
2022/06/05 04:41:53;;;;;;;;;;;18.60;94.60;;;;;;5094778;28;19916;-73
2022/06/05 04:44:19;;;;;;;;;;;18.70;94.50;;;;;;5094638;28;19908;-73
2022/06/05 04:46:45;;;;;;;;;;;18.70;94.70;;;;;;5094606;28;20402;-73
2022/06/05 04:49:11;;;;;;;;;;;18.70;94.70;;;;;;5094505;28;20458;-72
2022/06/05 04:51:37;;;;;;;;;;;18.70;94.80;;;;;;5094599;28;20014;-72
2022/06/05 04:54:04;;;;;;;;;;;18.80;94.90;;;;;;5094447;28;20316;-73
2022/06/05 04:56:30;;;;;;;;;;;18.80;94.90;;;;;;5094554;28;19962;-73
2022/06/05 04:58:56;;;;;;;;;;;18.80;95.40;;;;;;5092857;28;19956;-73
2022/06/05 05:01:23;;;;;;;;;;;18.80;96.10;;;;;;5094587;28;20428;-73
2022/06/05 05:03:51;;;;;;;;;;;18.80;96.30;;;;;;5094370;28;19916;-73
2022/06/05 05:06:16;;;;;;;;;;;18.80;96.40;;;;;;5094366;28;19912;-73
2022/06/05 05:08:42;;;;;;;;;;;18.80;98.00;;;;;;5093844;28;19922;-73
2022/06/05 05:11:07;;;;;;;;;;;18.80;99.10;;;;;;5094555;28;19912;-73
2022/06/05 05:13:33;;;;;;;;;;;18.80;99.90;;;;;;5093976;28;19912;-74
2022/06/05 05:15:58;;;;;;;;;;;18.80;99.90;;;;;;5094404;28;20425;-73
2022/06/05 05:18:24;;;;;;;;;;;18.90;99.90;;;;;;5093948;28;19938;-73
2022/06/05 05:20:50;;;;;;;;;;;18.90;99.90;;;;;;5094190;28;19913;-73
2022/06/05 05:23:16;;;;;;;;;;;18.80;99.90;;;;;;5093944;28;19958;-74
2022/06/05 05:25:42;;;;;;;;;;;18.80;99.90;;;;;;5094107;28;19916;-74
2022/06/05 05:28:08;;;;;;;;;;;18.80;99.90;;;;;;5093662;28;20413;-74
2022/06/05 05:30:34;;;;;;;;;;;18.80;99.90;;;;;;5094008;28;19920;-74
2022/06/05 05:32:59;;;;;;;;;;;18.80;99.90;;;;;;5093614;28;19916;-73
2022/06/05 05:35:25;;;;;;;;;;;18.80;99.90;;;;;;5093616;28;20002;-74
2022/06/05 05:37:50;;;;;;;;;;;18.80;99.90;;;;;;5091883;28;19912;-74
2022/06/05 05:43:00;;;;;;;;;;;18.70;99.90;;;;;;5093905;28;19960;-73
2022/06/05 05:45:25;;;;;;;;;;;18.70;99.90;;;;;;5093760;28;19999;-74
2022/06/05 05:47:51;;;;;;;;;;;18.70;99.90;;;;;;5093237;28;20422;-73
2022/06/05 05:50:16;;;;;;;;;;;18.70;99.90;;;;;;5092237;28;19912;-74
2022/06/05 05:52:43;;;;;;;;;;;18.80;99.90;;;;;;5093273;28;19975;-74
2022/06/05 05:55:13;;;;;;;;;;;18.80;99.90;;;;;;5093296;28;20389;-74
2022/06/05 05:57:39;;;;;;;;;;;18.80;99.90;;;;;;5093155;28;19916;-73
2022/06/05 06:00:09;;;;;;;;;;;18.80;99.90;;;;;;5093640;28;20008;-73
2022/06/05 06:02:35;;;;;;;;;;;18.90;99.90;;;;;;5091728;28;19912;-74
2022/06/05 06:05:00;;;;;;;;;;;19.00;99.90;;;;;;5093036;28;20329;-73
2022/06/05 06:07:26;;;;;;;;;;;19.10;99.90;;;;;;5093173;28;19916;-73
2022/06/05 06:09:52;;;;;;;;;;;19.00;99.90;;;;;;5093071;28;19916;-73
2022/06/05 06:12:17;;;;;;;;;;;18.90;99.90;;;;;;5092880;28;19961;-74
2022/06/05 06:14:43;;;;;;;;;;;18.90;99.90;;;;;;5092845;28;19916;-73
2022/06/05 06:17:09;;;;;;;;;;;19.00;99.90;;;;;;5091546;28;19919;-74
2022/06/05 06:19:35;;;;;;;;;;;19.00;99.90;;;;;;5092928;28;20002;-73
2022/06/05 06:22:01;;;;;;;;;;;19.00;99.90;;;;;;5092843;28;19916;-74
2022/06/05 06:24:27;;;;;;;;;;;19.10;99.90;;;;;;5090898;28;20395;-74
2022/06/05 06:26:52;;;;;;;;;;;19.10;99.90;;;;;;5092497;28;19916;-74
2022/06/05 06:29:18;;;;;;;;;;;19.20;99.90;;;;;;5092898;28;19908;-73
2022/06/05 06:31:43;;;;;;;;;;;19.20;99.90;;;;;;5092573;28;20016;-74
2022/06/05 06:34:09;;;;;;;;;;;19.30;99.90;;;;;;5092306;28;19908;-74
2022/06/05 06:36:35;;;;;;;;;;;19.30;99.90;;;;;;5092428;28;19966;-74
2022/06/05 06:39:00;;;;;;;;;;;19.30;99.90;;;;;;5091051;28;19908;-74
2022/06/05 06:41:26;;;;;;;;;;;19.30;99.90;;;;;;5091478;28;19956;-73
2022/06/05 06:43:52;;;;;;;;;;;19.40;99.90;;;;;;5092243;28;20421;-73
2022/06/05 06:46:18;;;;;;;;;;;19.40;99.90;;;;;;5091282;28;19915;-67
2022/06/05 06:48:44;;;;;;;;;;;19.50;99.90;;;;;;5091886;28;19919;-67
2022/06/05 06:51:10;;;;;;;;;;;19.50;99.90;;;;;;5091266;28;19915;-67
2022/06/05 06:53:37;;;;;;;;;;;19.50;99.90;;;;;;5092163;28;19920;-67
2022/06/05 06:56:09;;;;;;;;;;;19.50;99.90;;;;;;5092778;28;19999;-67
2022/06/05 06:58:34;;;;;;;;;;;19.60;99.90;;;;;;5092076;28;20295;-68
2022/06/05 07:01:00;;;;;;;;;;;19.70;99.90;;;;;;5092509;28;19915;-67
2022/06/05 07:03:25;;;;;;;;;;;19.70;99.90;;;;;;5091977;28;20262;-67
2022/06/05 07:05:50;;;;;;;;;;;19.70;99.90;;;;;;5092271;28;19908;-68
2022/06/05 07:08:16;;;;;;;;;;;19.70;99.90;;;;;;5091875;28;20041;-68
2022/06/05 07:10:43;;;;;;;;;;;19.60;99.90;;;;;;5092502;28;19962;-68
2022/06/05 07:13:09;;;;;;;;;;;19.50;99.90;;;;;;5091972;28;20313;-68
2022/06/05 07:15:34;;;;;;;;;;;19.40;99.90;;;;;;5092063;28;19916;-69
2022/06/05 07:18:01;;;;;;;;;;;19.30;99.90;;;;;;5091864;28;19930;-68
2022/06/05 07:20:26;;;;;;;;;;;19.20;99.90;;;;;;5091752;28;20432;-69
2022/06/05 07:22:52;;;;;;;;;;;19.10;99.90;;;;;;5091866;28;19978;-68
2022/06/05 07:25:17;;;;;;;;;;;19.10;99.90;;;;;;5091731;28;19924;-69
2022/06/05 07:27:43;;;;;;;;;;;19.00;99.90;;;;;;5091529;28;19916;-68
2022/06/05 07:30:09;;;;;;;;;;;18.90;99.90;;;;;;5091795;28;19918;-68
2022/06/05 07:32:35;;;;;;;;;;;18.90;99.90;;;;;;5091695;28;19922;-68
2022/06/05 07:35:00;;;;;;;;;;;18.90;99.90;;;;;;5091883;28;19912;-69
2022/06/05 07:37:26;;;;;;;;;;;18.90;99.90;;;;;;5091730;28;19919;-69
2022/06/05 07:39:51;;;;;;;;;;;18.90;99.90;;;;;;5090199;28;20303;-69
2022/06/05 07:42:17;;;;;;;;;;;18.90;99.90;;;;;;5091601;28;20364;-68
2022/06/05 07:44:42;;;;;;;;;;;18.90;99.90;;;;;;5091386;28;19998;-69
2022/06/05 07:47:08;;;;;;;;;;;19.00;99.90;;;;;;5091427;28;20306;-68
2022/06/05 07:49:37;;;;;;;;;;;18.90;99.90;;;;;;5091641;28;19919;-69
2022/06/05 07:54:47;;;;;;;;;;;18.90;99.90;;;;;;5091575;28;19923;-68
2022/06/05 07:57:14;;;;;;;;;;;18.90;99.90;;;;;;5091300;28;19912;-68
2022/06/05 07:59:43;;;;;;;;;;;18.90;99.90;;;;;;5089669;28;20703;-68
2022/06/05 08:02:12;;;;;;;;;;;18.90;99.90;;;;;;5093110;28;19912;-69
2022/06/05 08:04:38;;;;;;;;;;;18.90;99.90;;;;;;5093886;28;20334;-69
2022/06/05 08:07:05;;;;;;;;;;;18.90;99.90;;;;;;5095177;28;20015;-69
2022/06/05 08:09:30;;;;;;;;;;;18.90;99.90;;;;;;5095414;28;19916;-68
2022/06/05 08:11:56;;;;;;;;;;;19.00;99.90;;;;;;5095337;28;19912;-68
2022/06/05 08:14:22;;;;;;;;;;;19.00;99.90;;;;;;5094999;28;19912;-66
2022/06/05 08:16:48;;;;;;;;;;;19.00;99.90;;;;;;5095160;28;20301;-65
2022/06/05 08:19:15;;;;;;;;;;;19.00;99.90;;;;;;5093518;28;19923;-68
2022/06/05 08:21:40;;;;;;;;;;;19.10;99.90;;;;;;5094869;28;20363;-63
2022/06/05 08:24:06;;;;;;;;;;;19.10;99.90;;;;;;5094691;28;19927;-66
2022/06/05 08:26:32;;;;;;;;;;;19.10;99.90;;;;;;5095411;28;20296;-65
2022/06/05 08:28:59;;;;;;;;;;;19.20;99.90;;;;;;5094966;28;19916;-66
2022/06/05 08:31:24;;;;;;;;;;;19.20;99.90;;;;;;5095305;28;20007;-66
2022/06/05 08:33:50;;;;;;;;;;;19.20;99.90;;;;;;5094794;28;20226;-65
2022/06/05 08:36:15;;;;;;;;;;;19.20;99.90;;;;;;5095155;28;20102;-65
2022/06/05 08:41:28;;;;;;;;;;;19.20;99.90;;;;;;5095128;28;19962;-64
2022/06/05 08:43:57;;;;;;;;;;;19.30;99.90;;;;;;5093260;28;20326;-65
2022/06/05 08:46:26;;;;;;;;;;;19.30;99.90;;;;;;5094873;28;19965;-67
2022/06/05 08:48:57;;;;;;;;;;;19.30;99.90;;;;;;5094756;28;19923;-66
2022/06/05 08:51:29;;;;;;;;;;;19.30;99.90;;;;;;5094958;28;19912;-65
2022/06/05 08:53:56;;;;;;;;;;;19.40;99.90;;;;;;5094415;28;19927;-66
2022/06/05 08:56:27;;;;;;;;;;;19.30;99.90;;;;;;5094699;28;19912;-66
2022/06/05 08:59:00;;;;;;;;;;;19.30;99.90;;;;;;5094213;28;19916;-66
2022/06/05 09:01:31;;;;;;;;;;;19.30;99.90;;;;;;5093978;28;19916;-71
2022/06/05 09:04:20;;;;;;;;;;;19.20;99.90;;;;;;5094244;28;20324;-71
2022/06/05 09:06:50;;;;;;;;;;;19.20;99.90;;;;;;5086053;28;19916;-70
2022/06/05 09:09:21;;;;;;;;;;;19.10;99.90;;;;;;5094054;28;19912;-70
2022/06/05 09:11:51;;;;;;;;;;;19.00;99.90;;;;;;5094118;28;19916;-70
2022/06/05 09:14:20;;;;;;;;;;;18.90;99.90;;;;;;5092943;28;19908;-70
2022/06/05 09:16:49;;;;;;;;;;;18.90;99.90;;;;;;5093953;28;19926;-71
2022/06/05 09:19:16;;;;;;;;;;;18.90;99.90;;;;;;5093915;28;19908;-71
2022/06/05 09:21:50;;;;;;;;;;;18.90;99.90;;;;;;5093939;28;19923;-71
2022/06/05 09:24:19;;;;;;;;;;;18.80;99.90;;;;;;5093625;28;19985;-71
2022/06/05 09:26:47;;;;;;;;;;;18.80;99.90;;;;;;5093727;28;20275;-71
2022/06/05 09:29:13;;;;;;;;;;;18.80;99.90;;;;;;5093599;28;19909;-71
2022/06/05 09:31:57;;;;;;;;;;;18.90;99.90;;;;;;5093781;28;20376;-70
2022/06/05 09:34:34;;;;;;;;;;;18.90;99.90;;;;;;5093598;28;20349;-71
2022/06/05 09:37:09;;;;;;;;;;;19.00;99.90;;;;;;5093577;28;19951;-71
2022/06/05 09:39:46;;;;;;;;;;;19.10;99.90;;;;;;5093342;28;19908;-70
2022/06/05 09:42:12;;;;;;;;;;;19.20;99.90;;;;;;5093479;28;19920;-71
2022/06/05 09:44:50;;;;;;;;;;;19.40;99.90;;;;;;5093429;28;20366;-71
2022/06/05 09:47:37;;;;;;;;;;;19.50;99.90;;;;;;5093402;28;19926;-70
2022/06/05 09:50:09;;;;;;;;;;;19.60;99.90;;;;;;5093461;28;19912;-71
2022/06/05 09:52:34;;;;;;;;;;;19.70;99.90;;;;;;5093198;28;20015;-71
2022/06/05 09:55:16;;;;;;;;;;;19.70;99.90;;;;;;5093236;28;19947;-71
2022/06/05 10:00:47;;;;;;;;;;;19.80;99.90;;;;;;5090295;28;20090;-70
2022/06/05 10:03:15;;;;;;;;;;;19.80;99.90;;;;;;5092649;28;19961;-70
2022/06/05 10:05:45;;;;;;;;;;;19.80;99.90;;;;;;5093093;28;19961;-70
2022/06/05 10:08:22;;;;;;;;;;;19.70;99.90;;;;;;5092672;28;19920;-70
2022/06/05 10:10:48;;;;;;;;;;;19.70;99.90;;;;;;5093315;28;19957;-70
2022/06/05 10:13:20;;;;;;;;;;;19.80;99.90;;;;;;5092914;28;19924;-70
2022/06/05 10:15:55;;;;;;;;;;;19.80;99.90;;;;;;5093159;28;19915;-70
2022/06/05 10:18:32;;;;;;;;;;;19.80;99.90;;;;;;5091421;28;19968;-70
2022/06/05 10:21:04;;;;;;;;;;;19.80;99.90;;;;;;5093251;28;19976;-70
2022/06/05 10:23:32;;;;;;;;;;;19.80;99.90;;;;;;5092471;28;19977;-70
2022/06/05 10:26:10;;;;;;;;;;;19.90;99.90;;;;;;5092330;28;19920;-69
2022/06/05 10:28:39;;;;;;;;;;;20.00;99.90;;;;;;5092390;28;19916;-70
2022/06/05 10:31:07;;;;;;;;;;;20.10;99.90;;;;;;5092883;28;19919;-70
2022/06/05 10:33:38;;;;;;;;;;;20.20;99.90;;;;;;5091993;28;20455;-71
2022/06/05 10:36:09;;;;;;;;;;;20.30;99.90;;;;;;5092839;28;19912;-70
2022/06/05 10:38:41;;;;;;;;;;;20.50;99.90;;;;;;5092559;28;19916;-70
2022/06/05 10:41:26;;;;;;;;;;;20.60;99.90;;;;;;5091336;28;19954;-69
2022/06/05 10:44:10;;;;;;;;;;;20.70;99.90;;;;;;5092341;28;19922;-70
2022/06/05 10:46:38;;;;;;;;;;;20.80;99.90;;;;;;5092455;28;19923;-70
2022/06/05 10:49:10;;;;;;;;;;;20.90;99.90;;;;;;5092243;28;19912;-70
2022/06/05 10:51:41;;;;;;;;;;;21.00;99.90;;;;;;5092196;28;20003;-70
2022/06/05 10:54:27;;;;;;;;;;;21.20;99.90;;;;;;5092295;28;19908;-70
2022/06/05 10:57:03;;;;;;;;;;;21.20;99.90;;;;;;5081398;28;19942;-71
2022/06/05 10:59:35;;;;;;;;;;;21.30;99.90;;;;;;5092016;28;19920;-70
2022/06/05 11:02:12;;;;;;;;;;;21.40;99.90;;;;;;5091943;28;20286;-70
2022/06/05 11:04:46;;;;;;;;;;;21.50;99.90;;;;;;5090634;28;19961;-70
2022/06/05 11:07:16;;;;;;;;;;;21.60;99.90;;;;;;5090584;28;19926;-70
2022/06/05 11:10:02;;;;;;;;;;;21.60;99.90;;;;;;5090510;28;19919;-70
2022/06/05 11:15:12;;;;;;;;;;;21.60;99.90;;;;;;5092114;28;19919;-70
2022/06/05 11:17:56;;;;;;;;;;;21.50;99.90;;;;;;5091766;28;19912;-70
2022/06/05 11:20:22;;;;;;;;;;;21.40;99.90;;;;;;5092110;28;20034;-71
2022/06/05 11:22:59;;;;;;;;;;;21.40;99.90;;;;;;5090389;28;20329;-70
2022/06/05 11:25:29;;;;;;;;;;;21.50;99.90;;;;;;5091988;28;19927;-70
2022/06/05 11:28:22;;;;;;;;;;;21.60;99.90;;;;;;5090322;28;20272;-70
2022/06/05 11:30:48;;;;;;;;;;;21.80;99.90;;;;;;5091960;28;19962;-70
2022/06/05 11:33:19;;;;;;;;;;;22.00;99.90;;;;;;5091544;28;19916;-70
2022/06/05 11:35:53;;;;;;;;;;;22.10;99.90;;;;;;5091708;28;19916;-71
2022/06/05 11:38:28;;;;;;;;;;;22.00;99.90;;;;;;5091884;28;19938;-70
2022/06/05 11:40:59;;;;;;;;;;;22.00;99.90;;;;;;5091754;28;19915;-70
2022/06/05 11:43:34;;;;;;;;;;;22.00;99.90;;;;;;5091546;28;20302;-70
2022/06/05 11:46:06;;;;;;;;;;;22.00;99.90;;;;;;5091905;28;20007;-70
2022/06/05 11:48:31;;;;;;;;;;;22.00;99.90;;;;;;5091307;28;19924;-70
2022/06/05 11:51:00;;;;;;;;;;;22.10;98.90;;;;;;5091803;28;19962;-70
2022/06/05 11:53:41;;;;;;;;;;;22.20;99.00;;;;;;5091383;28;19920;-71
2022/06/05 11:56:22;;;;;;;;;;;22.40;99.00;;;;;;5091787;28;19908;-70
2022/06/05 11:58:54;;;;;;;;;;;22.70;98.20;;;;;;5091288;28;19923;-70
2022/06/05 12:01:24;;;;;;;;;;;22.80;97.80;;;;;;5091884;28;19908;-69
2022/06/05 12:04:10;;;;;;;;;;;22.80;97.10;;;;;;5091134;28;19977;-70
2022/06/05 12:06:39;;;;;;;;;;;22.70;97.20;;;;;;5091567;28;19942;-70
2022/06/05 12:09:10;;;;;;;;;;;22.60;97.30;;;;;;5091142;28;19958;-71
2022/06/05 12:11:55;;;;;;;;;;;22.50;97.20;;;;;;5091342;28;19920;-69
2022/06/05 12:14:23;;;;;;;;;;;22.30;97.30;;;;;;5091242;28;20380;-70
2022/06/05 12:17:08;;;;;;;;;;;22.30;97.40;;;;;;5091384;28;20370;-70
2022/06/05 12:19:43;;;;;;;;;;;22.20;97.50;;;;;;5091179;28;19912;-69
2022/06/05 12:22:15;;;;;;;;;;;22.10;97.40;;;;;;5089839;28;19916;-69
2022/06/05 12:24:47;;;;;;;;;;;22.10;97.60;;;;;;5090852;28;19924;-70
2022/06/05 12:27:16;;;;;;;;;;;22.20;97.80;;;;;;5090896;28;19967;-70
2022/06/05 12:29:47;;;;;;;;;;;22.20;98.40;;;;;;5091036;28;20425;-70
2022/06/05 12:32:21;;;;;;;;;;;22.10;97.90;;;;;;5091166;28;19917;-70
2022/06/05 12:34:54;;;;;;;;;;;22.00;98.10;;;;;;5089613;28;19912;-69
2022/06/05 12:37:26;;;;;;;;;;;22.00;98.30;;;;;;5090893;28;19920;-70
2022/06/05 12:39:53;;;;;;;;;;;21.90;98.60;;;;;;5090864;28;19961;-70
2022/06/05 12:42:21;;;;;;;;;;;21.90;98.50;;;;;;5091033;28;19920;-70
2022/06/05 12:44:50;;;;;;;;;;;22.00;99.00;;;;;;5091118;28;19912;-70
2022/06/05 12:47:34;;;;;;;;;;;22.00;99.20;;;;;;5091388;28;20006;-70
2022/06/05 12:49:59;;;;;;;;;;;22.00;98.80;;;;;;5094926;28;20423;-70
2022/06/05 12:52:25;;;;;;;;;;;22.00;98.50;;;;;;5094693;28;19962;-70
2022/06/05 12:55:03;;;;;;;;;;;22.00;98.50;;;;;;5094745;28;19912;-70
2022/06/05 12:57:37;;;;;;;;;;;22.00;98.30;;;;;;5094692;28;19920;-70
2022/06/05 13:00:06;;;;;;;;;;;22.10;98.60;;;;;;5094608;28;19916;-70
2022/06/05 13:02:31;;;;;;;;;;;22.10;98.30;;;;;;5094256;28;19912;-70
2022/06/05 13:05:21;;;;;;;;;;;22.00;98.30;;;;;;5094409;28;20007;-69
2022/06/05 13:07:54;;;;;;;;;;;22.00;97.80;;;;;;5094696;28;19923;-69
2022/06/05 13:10:26;;;;;;;;;;;22.10;97.90;;;;;;5094488;28;19916;-70
2022/06/05 13:12:55;;;;;;;;;;;22.10;97.80;;;;;;5094383;28;20376;-69
2022/06/05 13:15:21;;;;;;;;;;;22.20;97.90;;;;;;5094403;28;19912;-69
2022/06/05 13:18:03;;;;;;;;;;;22.20;98.50;;;;;;5094756;28;19965;-70
2022/06/05 13:20:35;;;;;;;;;;;22.10;98.10;;;;;;5094493;28;20279;-69
2022/06/05 13:23:06;;;;;;;;;;;22.00;97.90;;;;;;5094246;28;19924;-70
2022/06/05 13:26:01;;;;;;;;;;;22.00;98.60;;;;;;5093965;28;20371;-69
2022/06/05 13:28:42;;;;;;;;;;;21.90;98.20;;;;;;5080896;28;19987;-70
2022/06/05 13:31:20;;;;;;;;;;;21.80;98.00;;;;;;5093878;28;20418;-69
2022/06/05 13:33:52;;;;;;;;;;;21.80;97.70;;;;;;5094110;28;19912;-69
2022/06/05 13:36:29;;;;;;;;;;;21.80;97.40;;;;;;5094263;28;19916;-70
2022/06/05 13:39:13;;;;;;;;;;;21.90;97.10;;;;;;5094139;28;19970;-70
2022/06/05 13:41:46;;;;;;;;;;;21.90;97.30;;;;;;5093726;28;19920;-69
2022/06/05 13:44:15;;;;;;;;;;;21.90;96.80;;;;;;5093486;28;20306;-69
2022/06/05 13:46:59;;;;;;;;;;;21.90;96.90;;;;;;5093548;28;19999;-70
2022/06/05 13:49:40;;;;;;;;;;;21.80;96.30;;;;;;5093611;28;19912;-70
2022/06/05 13:52:17;;;;;;;;;;;21.80;94.90;;;;;;5092027;28;19912;-69
2022/06/05 13:54:47;;;;;;;;;;;21.80;95.60;;;;;;5093401;28;20299;-70
2022/06/05 13:57:15;;;;;;;;;;;21.80;96.70;;;;;;5093342;28;20514;-70
2022/06/05 13:59:49;;;;;;;;;;;21.90;95.80;;;;;;5092892;28;20347;-69
2022/06/05 14:02:21;;;;;;;;;;;21.90;95.70;;;;;;5093326;28;20264;-70
2022/06/05 14:05:04;;;;;;;;;;;21.80;96.00;;;;;;5093359;28;19919;-69
2022/06/05 14:07:48;;;;;;;;;;;21.70;96.20;;;;;;5093082;28;19917;-69
2022/06/05 14:10:21;;;;;;;;;;;21.70;96.50;;;;;;5093162;28;19999;-70
2022/06/05 14:12:55;;;;;;;;;;;21.70;96.90;;;;;;5093286;28;20354;-70
2022/06/05 14:15:37;;;;;;;;;;;21.70;97.00;;;;;;5092986;28;19912;-71
2022/06/05 14:18:03;;;;;;;;;;;21.70;97.40;;;;;;5092922;28;19923;-70
2022/06/05 14:20:32;;;;;;;;;;;21.60;97.60;;;;;;5093000;28;20267;-70
2022/06/05 14:22:59;;;;;;;;;;;21.60;97.60;;;;;;5092862;28;20372;-70
2022/06/05 14:25:25;;;;;;;;;;;20.20;98.40;;;;;;5092676;28;19924;-70
2022/06/05 14:27:56;;;;;;;;;;;21.60;99.40;;;;;;5091398;28;20011;-71
2022/06/05 14:30:24;;;;;;;;;;;21.50;99.90;;;;;;5092970;28;19951;-70
2022/06/05 14:32:49;;;;;;;;;;;21.50;99.90;;;;;;5092772;28;19923;-70
2022/06/05 14:35:20;;;;;;;;;;;21.40;99.90;;;;;;5092789;28;20362;-70
2022/06/05 14:37:54;;;;;;;;;;;21.50;99.90;;;;;;5074782;28;19919;-71
2022/06/05 14:40:21;;;;;;;;;;;21.40;99.90;;;;;;5092626;28;20413;-70
2022/06/05 14:43:08;;;;;;;;;;;21.40;99.90;;;;;;5092621;28;19912;-70
2022/06/05 14:45:34;;;;;;;;;;;21.50;99.90;;;;;;5092783;28;20003;-70
2022/06/05 14:48:07;;;;;;;;;;;21.40;99.90;;;;;;5092246;28;20470;-70